Time;durP1;ratioP1;P1;durP2;ratioP2;P2;SDS_P1;SDS_P2;PMS_P1;PMS_P2;Temp;Humidity;BMP_temperature;BMP_pressure;BME280_temperature;BME280_humidity;BME280_pressure;Samples;Min_cycle;Max_cycle;Signal;HPM_P1;HPM_P2
2022/08/14 00:00:13;;;;;;;16.00;1.45;;;;;;;26.02;59.40;99313.31;7313862;19;130340;-38
2022/08/14 00:02:39;;;;;;;21.02;1.98;;;;;;;26.01;57.83;99311.69;7314582;19;128899;-38
2022/08/14 00:05:08;;;;;;;32.67;2.85;;;;;;;25.70;54.18;99313.50;7315722;19;129417;-38
2022/08/14 00:07:34;;;;;;;7.30;1.00;;;;;;;25.53;53.43;99299.59;7314311;19;131107;-38
2022/08/14 00:10:04;;;;;;;16.52;1.75;;;;;;;25.73;56.74;99307.03;7313564;19;131249;-38
2022/08/14 00:12:31;;;;;;;24.35;2.10;;;;;;;25.74;57.28;99296.34;7313082;19;129140;-38
2022/08/14 00:14:57;;;;;;;34.80;2.92;;;;;;;25.81;57.75;99289.38;7313859;19;128770;-38
2022/08/14 00:17:23;;;;;;;2.10;0.60;;;;;;;25.96;57.29;99303.44;7314912;19;129042;-38
2022/08/14 00:19:48;;;;;;;20.77;2.17;;;;;;;25.98;57.57;99305.91;7312932;19;130741;-38
2022/08/14 00:22:17;;;;;;;23.30;2.13;;;;;;;25.99;57.56;99302.28;7313388;19;128859;-38
2022/08/14 00:24:43;;;;;;;36.33;3.13;;;;;;;25.97;57.50;99297.19;7308862;19;129415;-38
2022/08/14 00:27:09;;;;;;;17.20;1.73;;;;;;;25.98;58.12;99301.44;7315136;19;130223;-38
2022/08/14 00:29:35;;;;;;;14.47;1.70;;;;;;;25.99;58.59;99289.94;7311501;19;129356;-38
2022/08/14 00:32:00;;;;;;;21.57;1.93;;;;;;;26.00;58.10;99291.56;7313619;19;129046;-38
2022/08/14 00:34:26;;;;;;;26.37;2.43;;;;;;;25.93;58.11;99277.47;7311756;19;128691;-38
2022/08/14 00:36:51;;;;;;;13.53;1.53;;;;;;;26.01;59.13;99290.59;7314536;19;130985;-38
2022/08/14 00:39:17;;;;;;;9.07;0.97;;;;;;;26.02;59.15;99286.13;7313010;19;129324;-38
2022/08/14 00:41:42;;;;;;;34.23;3.43;;;;;;;26.00;58.35;99281.00;7313503;19;128812;-37
2022/08/14 00:44:08;;;;;;;25.73;2.47;;;;;;;26.01;58.28;99279.22;7311785;19;128921;-38
2022/08/14 00:46:36;;;;;;;16.80;1.63;;;;;;;26.00;58.75;99288.91;7313464;19;129167;-38
2022/08/14 00:49:01;;;;;;;8.63;1.10;;;;;;;26.00;58.42;99280.22;7311013;19;130029;-39
2022/08/14 00:51:31;;;;;;;44.00;3.97;;;;;;;26.02;58.88;99281.69;7312438;19;129249;-39
2022/08/14 00:53:57;;;;;;;26.73;2.25;;;;;;;25.67;54.08;99276.94;7311484;19;128891;-38
2022/08/14 00:56:23;;;;;;;5.23;0.80;;;;;;;25.58;53.72;99278.00;7313374;19;130337;-38
2022/08/14 00:58:49;;;;;;;23.67;2.35;;;;;;;25.79;57.52;99280.84;7311715;19;130252;-38
2022/08/14 01:01:17;;;;;;;20.73;2.17;;;;;;;25.86;57.72;99276.53;7311702;19;128981;-38
2022/08/14 01:03:43;;;;;;;28.33;2.67;;;;;;;25.92;57.85;99281.06;7310853;19;129095;-38
2022/08/14 01:06:11;;;;;;;16.02;1.60;;;;;;;25.97;57.55;99289.28;7312770;19;129502;-38
2022/08/14 01:08:37;;;;;;;17.40;1.67;;;;;;;25.98;58.37;99285.63;7310507;19;131038;-38
2022/08/14 01:11:04;;;;;;;;;;;;;;;26.05;60.17;99288.44;7313339;19;128842;-38
2022/08/14 01:13:37;;;;;;;23.63;2.20;;;;;;;26.02;59.46;99286.97;7310925;19;128978;-38
2022/08/14 01:16:05;;;;;;;19.67;1.95;;;;;;;25.99;57.93;99284.66;7313079;19;129688;-38
2022/08/14 01:21:24;;;;;;;17.98;1.77;;;;;;;26.00;59.51;99283.66;7312331;19;129186;-38
2022/08/14 01:23:52;;;;;;;13.50;1.42;;;;;;;25.97;58.57;99281.38;7310339;19;129251;-38
2022/08/14 01:26:22;;;;;;;38.05;3.22;;;;;;;26.00;58.51;99288.91;7311837;19;129192;-38
2022/08/14 01:28:49;;;;;;;22.58;2.20;;;;;;;26.01;58.52;99279.22;7310087;19;129276;-38
2022/08/14 01:31:18;;;;;;;14.63;1.48;;;;;;;25.94;59.35;99273.81;7311910;19;128879;-38
2022/08/14 01:33:47;;;;;;;3.05;0.80;;;;;;;26.00;59.48;99275.75;7309381;19;128857;-38
2022/08/14 01:36:15;;;;;;;19.63;2.08;;;;;;;26.01;58.78;99274.81;7313833;19;130034;-38
2022/08/14 01:38:42;;;;;;;34.40;3.03;;;;;;;25.99;58.69;99279.38;7318178;19;131506;-38
2022/08/14 01:41:10;;;;;;;7.82;1.17;;;;;;;26.03;57.49;99278.06;7319037;19;128815;-38
2022/08/14 01:43:44;;;;;;;16.35;1.70;;;;;;;25.59;53.95;99279.63;7317085;19;129191;-38
2022/08/14 01:46:10;;;;;;;7.28;1.05;;;;;;;25.66;55.41;99275.31;7317573;19;129151;-39
2022/08/14 01:48:38;;;;;;;31.50;2.83;;;;;;;25.80;57.50;99271.13;7316452;19;130220;-38
2022/08/14 01:51:06;;;;;;;17.55;1.88;;;;;;;25.89;58.73;99270.06;7318192;19;129143;-38
2022/08/14 01:53:33;;;;;;;19.20;2.00;;;;;;;25.94;57.58;99273.81;7316086;19;128965;-38
2022/08/14 01:56:02;;;;;;;16.05;1.55;;;;;;;25.96;58.90;99276.28;7317675;19;129715;-38
2022/08/14 01:58:28;;;;;;;33.50;2.92;;;;;;;25.97;58.01;99272.63;7317946;19;131563;-38
2022/08/14 02:00:55;;;;;;;21.53;2.10;;;;;;;25.99;57.88;99279.38;7319422;19;129757;-39
2022/08/14 02:03:30;;;;;;;10.40;1.20;;;;;;;26.01;58.14;99277.44;7316754;19;128944;-38
2022/08/14 02:06:00;;;;;;;16.83;1.88;;;;;;;26.00;58.53;99273.13;7316840;19;129284;-38
2022/08/14 02:08:29;;;;;;;17.27;1.75;;;;;;;25.99;57.41;99266.22;7316391;19;132127;-38
2022/08/14 02:11:21;;;;;;;40.33;3.53;;;;;;;26.00;58.29;99270.47;7317943;19;128766;-38
2022/08/14 02:13:55;;;;;;;36.20;3.22;;;;;;;26.00;58.82;99267.84;7315594;19;128804;-38
2022/08/14 02:16:24;;;;;;;28.33;2.78;;;;;;;26.00;58.65;99267.84;7317277;19;130757;-38
2022/08/14 02:18:51;;;;;;;17.55;1.88;;;;;;;26.00;57.95;99262.56;7318050;19;131291;-38
2022/08/14 02:21:17;;;;;;;4.57;0.75;;;;;;;26.02;57.39;99265.06;7317643;19;129026;-38
2022/08/14 02:23:44;;;;;;;18.90;1.97;;;;;;;25.92;58.38;99253.91;7315839;19;129145;-38
2022/08/14 02:26:16;;;;;;;36.03;3.05;;;;;;;26.00;59.58;99267.84;7317613;19;130108;-38
2022/08/14 02:28:41;;;;;;;16.20;1.85;;;;;;;26.00;58.17;99267.84;7316221;19;129431;-39
2022/08/14 02:31:07;;;;;;;10.37;1.40;;;;;;;25.60;53.78;99265.50;7316578;19;128851;-38
2022/08/14 02:33:34;;;;;;;14.70;1.50;;;;;;;25.66;54.95;99262.16;7314540;19;128971;-38
2022/08/14 02:36:00;;;;;;;;;;;;;;;25.85;59.53;99256.41;7317222;19;129345;-39
2022/08/14 02:38:25;;;;;;;4.50;0.90;;;;;;;25.91;57.66;99257.53;7317282;19;131222;-38
2022/08/14 02:40:50;;;;;;;16.50;1.73;;;;;;;25.96;57.83;99255.22;7317103;19;129038;-38
2022/08/14 02:43:16;;;;;;;16.27;1.90;;;;;;;25.99;58.01;99249.59;7314518;19;129146;-38
2022/08/14 02:45:42;;;;;;;30.50;2.70;;;;;;;25.99;58.48;99249.59;7316562;19;131583;-38
2022/08/14 02:48:08;;;;;;;18.30;1.92;;;;;;;25.98;57.22;99243.47;7315576;19;130410;-37
2022/08/14 02:50:36;;;;;;;13.32;1.50;;;;;;;25.90;57.72;99230.38;7316308;19;128914;-39
2022/08/14 02:53:02;;;;;;;11.60;1.30;;;;;;;25.99;57.90;99247.78;7314866;19;128818;-38
2022/08/14 02:55:29;;;;;;;37.67;3.43;;;;;;;26.00;58.27;99241.50;7316271;19;129617;-38
2022/08/14 02:57:56;;;;;;;17.73;1.92;;;;;;;26.00;58.93;99238.06;7317980;19;130665;-39
2022/08/14 03:00:22;;;;;;;23.77;2.53;;;;;;;26.01;58.76;99240.56;7316587;19;128954;-38
2022/08/14 03:02:49;;;;;;;19.00;1.98;;;;;;;26.00;58.74;99240.69;7314900;19;129694;-38
2022/08/14 03:05:16;;;;;;;33.58;2.92;;;;;;;26.00;59.00;99241.50;7315568;19;130677;-38
2022/08/14 03:07:42;;;;;;;17.17;1.65;;;;;;;26.01;58.58;99237.06;7315971;19;131046;-38
2022/08/14 03:10:09;;;;;;;7.78;0.95;;;;;;;26.00;58.20;99241.50;7312940;19;128892;-37
2022/08/14 03:12:34;;;;;;;24.70;2.45;;;;;;;26.00;58.35;99236.22;7314839;19;129734;-38
2022/08/14 03:15:13;;;;;;;36.40;3.17;;;;;;;26.00;58.08;99244.13;7316176;19;130248;-38
2022/08/14 03:17:39;;;;;;;17.38;1.73;;;;;;;25.91;56.39;99239.94;7316771;19;130306;-38
2022/08/14 03:20:06;;;;;;;12.53;1.53;;;;;;;25.59;54.03;99245.41;7316328;19;128765;-38
2022/08/14 03:22:32;;;;;;;7.07;0.95;;;;;;;25.64;54.93;99245.72;7314997;19;129353;-38
2022/08/14 03:25:01;;;;;;;37.08;3.35;;;;;;;25.80;57.94;99250.84;7314814;19;130013;-38
2022/08/14 03:27:30;;;;;;;24.00;2.22;;;;;;;25.90;58.09;99246.19;7316006;19;129323;-38
2022/08/14 03:29:55;;;;;;;18.10;2.03;;;;;;;25.94;57.41;99242.22;7313146;19;128753;-38
2022/08/14 03:32:21;;;;;;;13.33;1.50;;;;;;;25.96;58.56;99245.50;7314201;19;128947;-38
2022/08/14 03:34:47;;;;;;;29.47;2.90;;;;;;;25.98;58.11;99243.47;7314484;19;129074;-38
2022/08/14 03:37:12;;;;;;;22.40;2.13;;;;;;;26.00;57.62;99238.88;7315352;19;130297;-38
2022/08/14 03:39:37;;;;;;;10.00;1.40;;;;;;;25.98;57.75;99232.94;7314293;19;128869;-37
2022/08/14 03:42:03;;;;;;;15.00;1.77;;;;;;;25.99;57.05;99237.22;7314319;19;129302;-38
2022/08/14 03:44:31;;;;;;;35.13;3.17;;;;;;;26.00;58.02;99233.59;7312131;19;129966;-38
2022/08/14 03:46:56;;;;;;;20.27;2.03;;;;;;;26.00;57.25;99228.31;7315666;19;129201;-39
2022/08/14 03:49:23;;;;;;;17.73;1.83;;;;;;;26.00;58.58;99228.31;7313678;19;128658;-38
2022/08/14 03:51:48;;;;;;;;;;;;;;;26.06;59.67;99240.84;7315292;19;129454;-38
2022/08/14 03:54:14;;;;;;;35.57;3.27;;;;;;;26.01;58.42;99232.66;7312049;19;129773;-38
2022/08/14 03:56:43;;;;;;;13.97;1.43;;;;;;;26.00;58.13;99233.59;7315158;19;131329;-38
2022/08/14 03:59:12;;;;;;;27.60;2.45;;;;;;;26.00;57.95;99230.16;7312348;19;129234;-38
2022/08/14 04:01:38;;;;;;;26.23;2.95;;;;;;;26.00;57.63;99228.31;7313570;19;129243;-38
2022/08/14 04:04:05;;;;;;;32.20;2.95;;;;;;;26.00;58.38;99225.69;7311974;19;130064;-38
2022/08/14 04:06:35;;;;;;;22.70;2.10;;;;;;;25.67;54.32;99226.91;7314411;19;129399;-38
2022/08/14 04:09:02;;;;;;;20.05;2.05;;;;;;;25.55;53.23;99220.44;7313015;19;129013;-38
2022/08/14 04:11:28;;;;;;;20.48;2.25;;;;;;;25.73;56.58;99224.41;7313276;19;129265;-38
2022/08/14 04:13:54;;;;;;;30.13;2.83;;;;;;;25.85;57.49;99229.28;7311807;19;129154;-38
2022/08/14 04:16:21;;;;;;;37.60;3.43;;;;;;;25.85;57.86;99216.13;7314458;19;129263;-39
2022/08/14 04:18:53;;;;;;;9.98;1.23;;;;;;;25.95;59.38;99229.88;7314403;19;129029;-39
2022/08/14 04:21:23;;;;;;;23.60;2.45;;;;;;;25.97;57.86;99231.31;7313654;19;129353;-38
2022/08/14 04:23:51;;;;;;;17.83;1.90;;;;;;;25.98;57.89;99226.88;7311805;19;130167;-38
2022/08/14 04:26:20;;;;;;;42.20;3.42;;;;;;;25.97;57.23;99228.69;7313426;19;129192;-39
2022/08/14 04:28:48;;;;;;;17.17;1.77;;;;;;;25.98;57.88;99222.41;7313460;19;128881;-39
2022/08/14 04:31:15;;;;;;;17.27;2.05;;;;;;;25.98;58.51;99222.41;7313599;19;129033;-38
2022/08/14 04:33:41;;;;;;;15.93;1.65;;;;;;;25.98;58.76;99221.59;7311507;19;130322;-38
2022/08/14 04:36:07;;;;;;;40.63;3.65;;;;;;;25.99;58.09;99224.06;7313548;19;129547;-38
2022/08/14 04:44:01;;;;;;;15.73;1.70;;;;;;;26.00;57.97;99217.78;7312556;19;129317;-38
2022/08/14 04:46:27;;;;;;;18.52;2.05;;;;;;;26.00;57.97;99209.88;7312444;19;129496;-38
2022/08/14 04:48:53;;;;;;;19.23;1.90;;;;;;;26.01;58.86;99210.72;7311940;19;129563;-37
2022/08/14 04:51:21;;;;;;;38.72;3.20;;;;;;;26.00;58.98;99209.88;7313572;19;128897;-38
2022/08/14 04:53:48;;;;;;;14.00;1.58;;;;;;;26.00;57.53;99209.09;7311826;19;130394;-38
2022/08/14 04:56:21;;;;;;;16.65;1.80;;;;;;;25.56;54.08;99203.63;7312942;19;130315;-38
2022/08/14 04:58:48;;;;;;;18.20;1.98;;;;;;;25.59;54.91;99200.66;7312434;19;129064;-38
2022/08/14 05:01:13;;;;;;;35.95;3.20;;;;;;;25.80;57.58;99203.44;7312458;19;128879;-38
2022/08/14 05:03:39;;;;;;;15.50;1.57;;;;;;;25.88;58.30;99190.25;7311308;19;131049;-38
2022/08/14 05:06:07;;;;;;;15.70;1.67;;;;;;;25.87;58.33;99188.59;7312035;19;129305;-38
2022/08/14 05:08:33;;;;;;;15.20;1.67;;;;;;;25.94;56.90;99199.25;7311889;19;129049;-39
2022/08/14 05:11:01;;;;;;;26.70;2.57;;;;;;;25.98;58.92;99201.34;7311427;19;129195;-38
2022/08/14 05:13:29;;;;;;;19.20;2.00;;;;;;;25.98;57.58;99201.34;7311336;19;129127;-38
2022/08/14 05:15:59;;;;;;;9.00;1.33;;;;;;;26.00;59.11;99209.09;7312567;19;131244;-38
2022/08/14 05:18:31;;;;;;;14.60;1.70;;;;;;;25.98;58.59;99201.34;7312507;19;129170;-38
2022/08/14 05:20:59;;;;;;;28.70;2.58;;;;;;;26.00;57.68;99199.34;7312074;19;129257;-38
2022/08/14 05:23:27;;;;;;;32.83;3.05;;;;;;;26.00;57.98;99199.34;7310600;19;129396;-38
2022/08/14 05:25:58;;;;;;;9.43;1.48;;;;;;;25.99;57.75;99192.44;7312395;19;129903;-38
2022/08/14 05:28:25;;;;;;;15.30;1.65;;;;;;;25.98;58.49;99193.44;7311267;19;128867;-38
2022/08/14 05:30:56;;;;;;;18.45;2.28;;;;;;;25.97;58.57;99191.81;7310959;19;129489;-39
2022/08/14 05:33:24;;;;;;;32.08;2.97;;;;;;;25.90;58.99;99177.69;7309609;19;130115;-38
2022/08/14 05:35:51;;;;;;;19.38;2.13;;;;;;;25.99;58.56;99191.63;7312209;19;129442;-38
2022/08/14 05:38:20;;;;;;;17.30;1.90;;;;;;;25.98;58.77;99190.78;7312009;19;128937;-38
2022/08/14 05:40:48;;;;;;;13.73;1.50;;;;;;;25.99;58.59;99197.72;7311531;19;128776;-38
2022/08/14 05:43:14;;;;;;;32.20;2.90;;;;;;;25.58;54.59;99194.56;7310624;19;131314;-38
2022/08/14 05:45:41;;;;;;;21.95;2.15;;;;;;;25.54;53.84;99189.81;7311251;19;129217;-38
2022/08/14 05:48:11;;;;;;;16.27;1.67;;;;;;;25.75;57.11;99187.34;7310938;19;128906;-38
2022/08/14 05:50:37;;;;;;;15.48;1.73;;;;;;;25.84;57.39;99194.22;7308397;19;128861;-38
2022/08/14 05:53:02;;;;;;;32.40;3.17;;;;;;;25.91;57.76;99183.78;7308947;19;129468;-38
2022/08/14 05:55:27;;;;;;;30.53;2.67;;;;;;;25.96;57.84;99184.91;7311949;19;129828;-38
2022/08/14 05:58:01;;;;;;;21.70;2.40;;;;;;;25.89;58.24;99169.97;7310801;19;128918;-38
2022/08/14 06:00:32;;;;;;;16.67;1.83;;;;;;;25.96;59.18;99176.19;7310931;19;129605;-38
2022/08/14 06:02:59;;;;;;;18.75;2.00;;;;;;;25.97;57.98;99183.91;7309624;19;130170;-38
2022/08/14 06:05:25;;;;;;;32.70;3.08;;;;;;;25.97;58.13;99186.53;7310654;19;130294;-38
2022/08/14 06:07:51;;;;;;;22.38;2.75;;;;;;;25.98;58.53;99180.25;7311042;19;128916;-38
2022/08/14 06:10:16;;;;;;;6.83;1.03;;;;;;;25.97;58.29;99178.63;7308530;19;129343;-38
2022/08/14 06:12:42;;;;;;;26.07;2.77;;;;;;;25.98;57.95;99182.88;7309774;19;129560;-38
2022/08/14 06:15:08;;;;;;;41.57;3.50;;;;;;;25.98;58.87;99177.63;7310197;19;129624;-38
2022/08/14 06:17:47;;;;;;;15.55;1.58;;;;;;;25.97;60.06;99164.63;7310903;19;128964;-38
2022/08/14 06:20:14;;;;;;;8.00;1.27;;;;;;;26.00;58.32;99164.31;7310596;19;129557;-38
2022/08/14 06:22:41;;;;;;;13.55;1.50;;;;;;;26.01;58.34;99160.66;7310595;19;130241;-38
2022/08/14 06:25:07;;;;;;;33.08;2.97;;;;;;;25.99;58.59;99160.84;7316483;19;129651;-38
2022/08/14 06:27:43;;;;;;;;;;;;;;;26.04;60.70;99152.41;7318072;19;128859;-38
2022/08/14 06:30:12;;;;;;;14.50;1.55;;;;;;;25.63;53.84;99159.81;7316171;19;128697;-38
2022/08/14 06:32:38;;;;;;;19.55;2.05;;;;;;;25.57;53.74;99160.50;7316393;19;129791;-38
2022/08/14 06:35:05;;;;;;;14.50;1.63;;;;;;;25.76;57.37;99160.06;7317379;19;131129;-38
2022/08/14 06:37:40;;;;;;;38.40;3.28;;;;;;;25.84;58.76;99157.34;7317923;19;129520;-39
2022/08/14 06:40:07;;;;;;;14.63;1.65;;;;;;;25.91;58.28;99153.00;7316934;19;128966;-38
2022/08/14 06:42:32;;;;;;;13.77;1.70;;;;;;;25.94;58.63;99144.75;7316085;19;129238;-38
2022/08/14 06:45:00;;;;;;;15.33;1.53;;;;;;;25.96;57.11;99144.56;7316350;19;130311;-38
2022/08/14 06:47:25;;;;;;;34.50;3.03;;;;;;;25.97;58.29;99151.47;7316368;19;128823;-38
2022/08/14 06:49:50;;;;;;;15.37;1.83;;;;;;;25.99;58.59;99147.66;7315455;19;129187;-38
2022/08/14 06:52:16;;;;;;;14.97;1.70;;;;;;;26.00;57.52;99143.22;7316350;19;130097;-38
2022/08/14 06:54:41;;;;;;;14.37;1.77;;;;;;;25.98;57.76;99135.47;7313870;19;129718;-38
2022/08/14 06:57:07;;;;;;;35.67;3.13;;;;;;;26.00;58.26;99141.38;7316357;19;128830;-38
2022/08/14 06:59:32;;;;;;;20.50;2.03;;;;;;;25.98;58.43;99132.84;7316873;19;129067;-38
2022/08/14 07:07:34;;;;;;;16.23;1.73;;;;;;;25.89;60.08;99112.84;7316837;19;128938;-38
2022/08/14 07:10:00;;;;;;;19.60;2.03;;;;;;;25.97;58.45;99131.22;7314789;19;128936;-38
2022/08/14 07:12:25;;;;;;;45.60;3.87;;;;;;;25.98;57.99;99122.31;7314940;19;129766;-38
2022/08/14 07:14:50;;;;;;;15.70;1.70;;;;;;;25.99;58.21;99123.13;7317705;19;130314;-38
2022/08/14 07:17:16;;;;;;;14.80;1.57;;;;;;;26.00;57.65;99125.59;7316213;19;129453;-38
2022/08/14 07:19:41;;;;;;;10.93;1.50;;;;;;;25.55;53.72;99120.41;7316156;19;129484;-38
2022/08/14 07:22:06;;;;;;;40.03;3.50;;;;;;;25.64;55.08;99116.69;7315584;19;129669;-38
2022/08/14 07:24:32;;;;;;;16.37;1.73;;;;;;;25.78;57.75;99115.94;7314595;19;131676;-38
2022/08/14 07:26:57;;;;;;;15.13;1.60;;;;;;;25.87;57.70;99120.09;7315773;19;129387;-38
2022/08/14 07:29:23;;;;;;;24.00;2.37;;;;;;;25.92;58.05;99117.75;7313729;19;128883;-38
2022/08/14 07:31:48;;;;;;;27.07;2.47;;;;;;;25.93;57.67;99114.16;7315819;19;129412;-38
2022/08/14 07:34:13;;;;;;;15.10;1.70;;;;;;;25.98;58.18;99110.97;7312312;19;130305;-38
2022/08/14 07:36:39;;;;;;;15.50;1.63;;;;;;;25.98;57.44;99110.97;7314555;19;129201;-38
2022/08/14 07:39:04;;;;;;;29.47;2.70;;;;;;;25.98;58.44;99105.69;7314246;19;129232;-38
2022/08/14 07:41:29;;;;;;;28.57;2.73;;;;;;;25.99;57.85;99108.16;7314637;19;130318;-39
2022/08/14 07:43:55;;;;;;;17.80;1.93;;;;;;;25.99;58.09;99108.16;7313199;19;130311;-38
2022/08/14 07:46:20;;;;;;;15.43;1.70;;;;;;;25.88;57.51;99084.88;7314560;19;129505;-38
2022/08/14 07:48:47;;;;;;;29.13;2.63;;;;;;;25.98;58.37;99110.97;7314364;19;129494;-38
2022/08/14 07:51:12;;;;;;;20.50;2.00;;;;;;;25.96;58.79;99103.25;7312468;19;130095;-38
2022/08/14 07:53:39;;;;;;;15.20;1.67;;;;;;;25.98;58.16;99093.31;7313170;19;129871;-39
2022/08/14 07:56:04;;;;;;;;;;;;;;;25.98;60.20;99082.00;7315314;19;129373;-38
2022/08/14 07:58:30;;;;;;;35.10;3.05;;;;;;;25.99;58.85;99094.97;7314317;19;129112;-38
2022/08/14 08:00:56;;;;;;;15.50;1.67;;;;;;;25.99;59.13;99089.72;7315159;19;128996;-38
2022/08/14 08:03:26;;;;;;;16.38;1.63;;;;;;;25.99;59.24;99087.06;7312339;19;130424;-38
2022/08/14 08:05:51;;;;;;;14.05;1.60;;;;;;;25.68;54.88;99083.75;7313534;19;128897;-38
2022/08/14 08:08:19;;;;;;;33.40;2.93;;;;;;;25.56;53.21;99085.16;7313467;19;129497;-38
2022/08/14 08:10:45;;;;;;;15.73;1.70;;;;;;;25.68;55.80;99089.03;7312396;19;129197;-38
2022/08/14 08:13:14;;;;;;;15.07;1.70;;;;;;;25.81;58.10;99083.13;7312375;19;129702;-38
2022/08/14 08:15:45;;;;;;;16.27;1.60;;;;;;;25.87;58.89;99077.97;7315058;19;129771;-38
2022/08/14 08:18:13;;;;;;;19.73;2.05;;;;;;;25.90;57.82;99082.88;7313281;19;128831;-38
2022/08/14 08:20:45;;;;;;;29.50;2.70;;;;;;;25.93;59.56;99074.63;7313885;19;129431;-38
2022/08/14 08:23:11;;;;;;;17.65;1.85;;;;;;;25.93;57.17;99082.53;7312491;19;129383;-38
2022/08/14 08:25:39;;;;;;;7.87;1.20;;;;;;;25.96;58.78;99076.06;7314331;19;129373;-38
2022/08/14 08:28:16;;;;;;;19.17;1.83;;;;;;;25.96;58.71;99081.34;7313286;19;129022;-38
2022/08/14 08:30:59;;;;;;;34.33;3.17;;;;;;;25.97;59.81;99078.53;7311364;19;130770;-38
2022/08/14 08:33:27;;;;;;;45.28;3.88;;;;;;;25.98;58.60;99079.34;7311092;19;130257;-38
2022/08/14 08:35:57;;;;;;;17.08;1.88;;;;;;;25.96;58.75;99076.91;7314071;19;128739;-38
2022/08/14 08:38:25;;;;;;;15.82;1.58;;;;;;;25.96;58.74;99071.63;7313300;19;129067;-38
2022/08/14 08:40:53;;;;;;;14.02;1.48;;;;;;;25.94;58.36;99073.63;7313398;19;129610;-38
2022/08/14 08:43:32;;;;;;;29.38;2.80;;;;;;;25.94;58.97;99071.00;7311868;19;130554;-38
2022/08/14 08:46:07;;;;;;;40.72;3.55;;;;;;;25.97;60.48;99068.00;7310604;19;129089;-38
2022/08/14 08:48:45;;;;;;;24.33;2.25;;;;;;;25.94;60.38;99063.09;7314081;19;129129;-38
2022/08/14 08:51:21;;;;;;;15.98;1.63;;;;;;;25.97;59.85;99062.72;7311244;19;129468;-38
2022/08/14 08:53:58;;;;;;;15.00;1.67;;;;;;;25.88;59.92;99048.00;7311063;19;131162;-38
2022/08/14 08:56:36;;;;;;;21.20;2.17;;;;;;;25.57;53.48;99056.03;7312997;19;129289;-38
2022/08/14 08:59:02;;;;;;;14.48;1.52;;;;;;;25.65;55.74;99052.53;7312399;19;129213;-38
2022/08/14 09:01:32;;;;;;;31.92;2.83;;;;;;;25.77;57.53;99053.72;7311277;19;129235;-39
2022/08/14 09:04:01;;;;;;;28.23;2.55;;;;;;;25.77;59.03;99037.91;7311418;19;129221;-38
2022/08/14 09:06:26;;;;;;;16.90;1.73;;;;;;;25.90;57.56;99053.91;7313769;19;128844;-38
2022/08/14 09:08:52;;;;;;;8.87;1.50;;;;;;;25.93;58.12;99045.66;7312165;19;129572;-38
2022/08/14 09:11:23;;;;;;;21.30;2.08;;;;;;;25.94;57.45;99041.19;7309700;19;130204;-38
2022/08/14 09:13:53;;;;;;;39.92;3.42;;;;;;;25.94;59.09;99036.75;7309898;19;129304;-38
2022/08/14 09:16:23;;;;;;;15.77;1.65;;;;;;;25.93;57.55;99035.13;7312875;19;128927;-38
2022/08/14 09:18:49;;;;;;;15.93;1.70;;;;;;;25.95;57.95;99041.00;7312940;19;129603;-38
2022/08/14 09:21:15;;;;;;;19.13;1.87;;;;;;;25.94;57.54;99044.66;7311950;19;130110;-38
2022/08/14 09:23:40;;;;;;;32.90;3.10;;;;;;;25.95;58.77;99032.31;7310272;19;130741;-38
2022/08/14 09:26:06;;;;;;;16.73;1.57;;;;;;;25.97;58.81;99040.81;7312961;19;128764;-38
2022/08/14 09:28:31;;;;;;;14.43;1.43;;;;;;;25.96;58.37;99033.94;7311856;19;129520;-38
2022/08/14 09:30:58;;;;;;;5.47;0.80;;;;;;;25.96;58.62;99026.84;7309951;19;130111;-39
2022/08/14 09:33:44;;;;;;;38.78;3.22;;;;;;;25.99;60.43;99028.28;7310139;19;129609;-39
2022/08/14 09:36:12;;;;;;;43.75;3.78;;;;;;;25.97;58.67;99027.66;7312018;19;129276;-39
2022/08/14 09:38:45;;;;;;;14.98;1.55;;;;;;;25.90;60.05;99009.13;7312951;19;128899;-38
2022/08/14 09:41:32;;;;;;;6.38;0.95;;;;;;;25.97;59.93;99020.56;7311308;19;130296;-38
2022/08/14 09:44:01;;;;;;;16.25;1.48;;;;;;;25.52;53.96;99015.44;7309633;19;131180;-38
2022/08/14 09:46:27;;;;;;;20.48;2.13;;;;;;;25.59;54.82;99008.47;7311036;19;129514;-38
2022/08/14 09:49:04;;;;;;;34.90;3.00;;;;;;;25.74;58.91;99001.41;7311930;19;129247;-38
2022/08/14 09:51:30;;;;;;;;;;;;;;;25.90;59.65;99009.13;7308311;19;129333;-38
2022/08/14 09:54:05;;;;;;;16.90;1.73;;;;;;;25.90;59.00;98992.53;7310753;19;130277;-38
2022/08/14 09:56:51;;;;;;;15.52;1.65;;;;;;;25.95;59.50;98990.16;7312190;19;129314;-38
2022/08/14 09:59:21;;;;;;;3.83;0.70;;;;;;;25.93;57.97;98985.06;7317670;19;128868;-38
2022/08/14 10:01:48;;;;;;;18.17;1.80;;;;;;;25.93;57.88;98992.97;7317681;19;130218;-38
2022/08/14 10:04:19;;;;;;;32.08;2.70;;;;;;;25.92;59.50;98983.41;7315206;19;129723;-39
2022/08/14 10:06:45;;;;;;;21.90;1.98;;;;;;;25.93;58.16;98979.81;7317292;19;128988;-38
2022/08/14 10:09:12;;;;;;;16.33;1.80;;;;;;;25.85;58.49;98971.19;7317927;19;128773;-39
2022/08/14 10:11:38;;;;;;;31.27;3.53;;;;;;;25.94;58.10;98972.69;7316961;19;130129;-38
2022/08/14 10:14:15;;;;;;;;;;;;;;;26.00;60.02;98970.16;7316360;19;132183;-38
2022/08/14 10:16:43;;;;;;;26.00;2.45;;;;;;;25.96;58.70;98970.72;7317453;19;129118;-38
2022/08/14 10:19:12;;;;;;;4.57;0.77;;;;;;;25.94;59.45;98970.91;7317604;19;129120;-38
2022/08/14 10:21:40;;;;;;;22.52;2.63;;;;;;;25.94;58.55;98962.16;7316173;19;129432;-38
2022/08/14 10:24:08;;;;;;;16.83;1.55;;;;;;;25.94;58.25;98960.34;7314993;19;130306;-38
2022/08/14 10:26:35;;;;;;;36.75;3.17;;;;;;;25.94;59.21;98955.09;7317451;19;129446;-39
2022/08/14 10:29:06;;;;;;;12.75;1.35;;;;;;;25.96;60.23;98947.84;7317616;19;128866;-38
2022/08/14 10:31:32;;;;;;;29.45;3.05;;;;;;;25.52;53.77;98949.63;7314357;19;130041;-38
2022/08/14 10:34:07;;;;;;;13.90;1.52;;;;;;;25.51;55.54;98930.41;7314466;19;129425;-38
2022/08/14 10:36:35;;;;;;;18.95;1.90;;;;;;;25.72;58.05;98934.94;7316644;19;128811;-39
2022/08/14 10:39:07;;;;;;;39.97;3.33;;;;;;;25.81;59.17;98936.50;7316772;19;129068;-38
2022/08/14 10:41:34;;;;;;;38.35;3.85;;;;;;;25.88;58.95;98936.56;7315908;19;129420;-38
2022/08/14 10:44:13;;;;;;;14.55;1.52;;;;;;;25.91;59.71;98936.19;7314672;19;129438;-38
2022/08/14 10:46:52;;;;;;;17.48;1.70;;;;;;;25.90;59.32;98927.47;7317122;19;129025;-38
2022/08/14 10:49:21;;;;;;;14.85;1.50;;;;;;;25.93;57.77;98924.50;7316007;19;129207;-38
2022/08/14 10:52:06;;;;;;;22.83;2.25;;;;;;;25.93;59.94;98919.22;7315822;19;129225;-38
2022/08/14 10:54:37;;;;;;;34.92;3.17;;;;;;;25.92;58.78;98909.66;7313951;19;130056;-38
2022/08/14 10:57:17;;;;;;;34.22;2.97;;;;;;;25.95;59.78;98916.41;7317010;19;129015;-38
2022/08/14 10:59:46;;;;;;;22.08;2.17;;;;;;;25.93;59.63;98913.97;7316730;19;129521;-38
2022/08/14 11:02:36;;;;;;;14.60;1.52;;;;;;;25.93;60.03;98911.31;7316643;19;130379;-38
2022/08/14 11:05:12;;;;;;;15.32;1.60;;;;;;;25.94;58.71;98910.31;7316027;19;129314;-38
2022/08/14 11:07:41;;;;;;;20.55;2.05;;;;;;;25.94;57.87;98910.31;7315688;19;129739;-38
2022/08/14 11:10:10;;;;;;;14.23;1.58;;;;;;;25.94;57.91;98902.41;7314025;19;129575;-38
2022/08/14 11:12:51;;;;;;;40.60;3.38;;;;;;;25.93;60.11;98903.44;7315021;19;129353;-38
2022/08/14 11:15:22;;;;;;;40.60;3.30;;;;;;;25.91;59.48;98902.78;7316101;19;129131;-38
2022/08/14 11:17:49;;;;;;;16.25;1.67;;;;;;;25.93;58.66;98905.22;7315946;19;129210;-39
2022/08/14 11:20:21;;;;;;;15.82;1.52;;;;;;;25.56;54.56;98890.38;7315336;19;129115;-39
2022/08/14 11:22:53;;;;;;;19.50;1.85;;;;;;;25.58;54.85;98897.06;7314382;19;129301;-38
2022/08/14 11:25:22;;;;;;;23.85;2.33;;;;;;;25.68;57.56;98886.28;7316052;19;130561;-38
2022/08/14 11:27:48;;;;;;;29.63;2.50;;;;;;;25.81;57.13;98899.63;7316034;19;129511;-38
2022/08/14 11:30:18;;;;;;;4.97;0.90;;;;;;;25.87;58.34;98893.59;7314599;19;129116;-38
2022/08/14 11:32:49;;;;;;;18.80;2.20;;;;;;;25.89;57.69;98894.25;7313507;19;129311;-38
2022/08/14 11:35:18;;;;;;;9.38;1.13;;;;;;;25.90;58.59;98890.59;7315340;19;130446;-38
2022/08/14 11:37:52;;;;;;;39.70;3.30;;;;;;;25.91;60.14;98900.16;7315276;19;129117;-38